AFR452 LFML-LFBZ
Flight info
| Callsign | AFR452 |
|---|---|
| Flight time | 0h 54m |
| Altitude | 32000 |
| Route | FJR DCT GAI/N0441F310 DCT AGN DCT TBO DCT ORTEZ G17 SOVOS |
| Aircraft | A320/M-SDE3FGHIRWY/LB1 |
Departure
| Time | 2026-05-04 19:11 |
|---|---|
| Airport | Marseille Provence Airport (LFML) |
Arrival
| Time | 2026-05-04 20:05 |
|---|---|
| Airport | Biarritz Pays Basque airport (LFBZ) |
| Time | Latitude | Longitude | Altitude | Speed | Heading |
|---|---|---|---|---|---|
| 2026-05-04 18:43 | 43.44111 | 5.21995 | 36 ft | 0 kts | 54° |
| 2026-05-04 18:57 | 43.44109 | 5.21993 | 35 ft | 2 kts | 54° |
| 2026-05-04 18:57 | 43.44095 | 5.21965 | 36 ft | 2 kts | 54° |
| 2026-05-04 18:58 | 43.44081 | 5.21941 | 36 ft | 4 kts | 27° |
| 2026-05-04 18:58 | 43.44060 | 5.21939 | 36 ft | 4 kts | 322° |
| 2026-05-04 18:58 | 43.44042 | 5.21962 | 37 ft | 2 kts | 314° |
| 2026-05-04 18:58 | 43.44041 | 5.21963 | 37 ft | 0 kts | 314° |
| 2026-05-04 18:59 | 43.44042 | 5.21963 | 37 ft | 0 kts | 314° |
| 2026-05-04 19:01 | 43.44042 | 5.21962 | 37 ft | 1 kts | 314° |
| 2026-05-04 19:01 | 43.44048 | 5.21954 | 37 ft | 2 kts | 314° |
| 2026-05-04 19:02 | 43.44061 | 5.21935 | 36 ft | 5 kts | 314° |
| 2026-05-04 19:02 | 43.44084 | 5.21902 | 35 ft | 5 kts | 314° |
| 2026-05-04 19:02 | 43.44109 | 5.21860 | 34 ft | 6 kts | 295° |
| 2026-05-04 19:02 | 43.44100 | 5.21805 | 32 ft | 6 kts | 236° |
| 2026-05-04 19:03 | 43.44073 | 5.21763 | 33 ft | 5 kts | 225° |
| 2026-05-04 19:03 | 43.44056 | 5.21741 | 33 ft | 4 kts | 223° |
| 2026-05-04 19:03 | 43.44053 | 5.21737 | 33 ft | 4 kts | 223° |
| 2026-05-04 19:03 | 43.44036 | 5.21716 | 33 ft | 3 kts | 223° |
| 2026-05-04 19:04 | 43.44026 | 5.21703 | 33 ft | 3 kts | 223° |
| 2026-05-04 19:04 | 43.43978 | 5.21637 | 32 ft | 15 kts | 227° |
| 2026-05-04 19:04 | 43.43923 | 5.21536 | 32 ft | 17 kts | 252° |
| 2026-05-04 19:04 | 43.43969 | 5.21413 | 31 ft | 20 kts | 315° |
| 2026-05-04 19:05 | 43.44098 | 5.21234 | 26 ft | 30 kts | 314° |
| 2026-05-04 19:05 | 43.44193 | 5.21098 | 24 ft | 19 kts | 314° |
| 2026-05-04 19:05 | 43.44279 | 5.20965 | 20 ft | 19 kts | 307° |
| 2026-05-04 19:05 | 43.44346 | 5.20814 | 19 ft | 18 kts | 310° |
| 2026-05-04 19:06 | 43.44428 | 5.20693 | 19 ft | 17 kts | 314° |
| 2026-05-04 19:06 | 43.44505 | 5.20583 | 19 ft | 15 kts | 314° |
| 2026-05-04 19:06 | 43.44574 | 5.20484 | 17 ft | 14 kts | 314° |
| 2026-05-04 19:06 | 43.44638 | 5.20394 | 20 ft | 12 kts | 314° |
| 2026-05-04 19:07 | 43.44696 | 5.20313 | 19 ft | 11 kts | 314° |
| 2026-05-04 19:07 | 43.44743 | 5.20247 | 19 ft | 8 kts | 314° |
| 2026-05-04 19:07 | 43.44782 | 5.20190 | 20 ft | 10 kts | 314° |
| 2026-05-04 19:07 | 43.44846 | 5.20099 | 18 ft | 16 kts | 314° |
| 2026-05-04 19:08 | 43.44906 | 5.20015 | 18 ft | 13 kts | 314° |
| 2026-05-04 19:08 | 43.44954 | 5.19946 | 19 ft | 7 kts | 312° |
| 2026-05-04 19:08 | 43.44977 | 5.19887 | 17 ft | 6 kts | 282° |
| 2026-05-04 19:08 | 43.44958 | 5.19811 | 17 ft | 11 kts | 226° |
| 2026-05-04 19:09 | 43.44881 | 5.19798 | 18 ft | 12 kts | 156° |
| 2026-05-04 19:09 | 43.44816 | 5.19875 | 16 ft | 12 kts | 135° |
| 2026-05-04 19:09 | 43.44757 | 5.19954 | 18 ft | 11 kts | 134° |
| 2026-05-04 19:09 | 43.44729 | 5.19994 | 17 ft | 0 kts | 133° |
| 2026-05-04 19:10 | 43.44699 | 5.20037 | 17 ft | 31 kts | 133° |
| 2026-05-04 19:10 | 43.44392 | 5.20481 | 19 ft | 94 kts | 134° |
| 2026-05-04 19:10 | 43.43814 | 5.21315 | 35 ft | 143 kts | 133° |
| 2026-05-04 19:10 | 43.43010 | 5.22366 | 269 ft | 167 kts | 139° |
| 2026-05-04 19:11 | 43.42063 | 5.23315 | 1016 ft | 168 kts | 140° |
| 2026-05-04 19:11 | 43.41103 | 5.24208 | 1770 ft | 170 kts | 144° |
| 2026-05-04 19:11 | 43.40049 | 5.25135 | 2254 ft | 187 kts | 144° |
| 2026-05-04 19:11 | 43.38941 | 5.26096 | 3058 ft | 189 kts | 144° |
| 2026-05-04 19:12 | 43.37820 | 5.27067 | 3860 ft | 193 kts | 147° |
| 2026-05-04 19:12 | 43.35462 | 5.29079 | 5215 ft | 206 kts | 155° |
| 2026-05-04 19:12 | 43.34054 | 5.29321 | 5866 ft | 212 kts | 194° |
| 2026-05-04 19:13 | 43.32745 | 5.28175 | 6231 ft | 241 kts | 224° |
| 2026-05-04 19:13 | 43.31683 | 5.26260 | 6654 ft | 262 kts | 234° |
| 2026-05-04 19:13 | 43.30726 | 5.24096 | 7401 ft | 267 kts | 236° |
| 2026-05-04 19:13 | 43.29786 | 5.21879 | 8225 ft | 270 kts | 237° |
| 2026-05-04 19:14 | 43.28823 | 5.19669 | 9132 ft | 269 kts | 235° |
| 2026-05-04 19:14 | 43.27828 | 5.17489 | 9971 ft | 271 kts | 234° |
| 2026-05-04 19:14 | 43.26785 | 5.15290 | 10509 ft | 284 kts | 233° |
| 2026-05-04 19:14 | 43.25642 | 5.12954 | 10714 ft | 307 kts | 233° |
| 2026-05-04 19:15 | 43.24414 | 5.10477 | 11131 ft | 320 kts | 233° |
| 2026-05-04 19:15 | 43.23147 | 5.07932 | 11779 ft | 325 kts | 233° |
| 2026-05-04 19:15 | 43.21986 | 5.05263 | 12516 ft | 329 kts | 244° |
| 2026-05-04 19:15 | 43.21422 | 5.02200 | 13292 ft | 336 kts | 262° |
| 2026-05-04 19:16 | 43.21581 | 4.98967 | 13952 ft | 347 kts | 279° |
| 2026-05-04 19:16 | 43.22350 | 4.95791 | 14573 ft | 354 kts | 285° |
| 2026-05-04 19:16 | 43.23186 | 4.92600 | 15161 ft | 358 kts | 285° |
| 2026-05-04 19:16 | 43.24037 | 4.89362 | 15730 ft | 362 kts | 285° |
| 2026-05-04 19:17 | 43.24889 | 4.86094 | 16310 ft | 366 kts | 284° |
| 2026-05-04 19:17 | 43.25746 | 4.82785 | 16906 ft | 370 kts | 284° |
| 2026-05-04 19:17 | 43.26612 | 4.79443 | 17488 ft | 373 kts | 284° |
| 2026-05-04 19:17 | 43.27485 | 4.76075 | 18045 ft | 378 kts | 285° |
| 2026-05-04 19:18 | 43.28439 | 4.72684 | 18570 ft | 385 kts | 290° |
| 2026-05-04 19:18 | 43.29711 | 4.69423 | 19078 ft | 390 kts | 294° |
| 2026-05-04 19:18 | 43.31021 | 4.66158 | 19629 ft | 392 kts | 294° |
| 2026-05-04 19:18 | 43.32336 | 4.62872 | 20176 ft | 394 kts | 294° |
| 2026-05-04 19:19 | 43.33453 | 4.59462 | 20705 ft | 389 kts | 281° |
| 2026-05-04 19:19 | 43.33865 | 4.55823 | 21236 ft | 385 kts | 269° |
| 2026-05-04 19:19 | 43.34023 | 4.52141 | 21746 ft | 388 kts | 269° |
| 2026-05-04 19:19 | 43.34163 | 4.48435 | 22246 ft | 390 kts | 269° |
| 2026-05-04 19:20 | 43.34295 | 4.44697 | 22745 ft | 393 kts | 268° |
| 2026-05-04 19:20 | 43.34426 | 4.40942 | 23223 ft | 395 kts | 268° |
| 2026-05-04 19:20 | 43.34558 | 4.37156 | 23667 ft | 398 kts | 269° |
| 2026-05-04 19:20 | 43.34693 | 4.33351 | 24053 ft | 400 kts | 269° |
| 2026-05-04 19:21 | 43.34829 | 4.29520 | 24439 ft | 402 kts | 269° |
| 2026-05-04 19:21 | 43.34966 | 4.25672 | 24815 ft | 404 kts | 269° |
| 2026-05-04 19:21 | 43.35107 | 4.21807 | 25186 ft | 406 kts | 269° |
| 2026-05-04 19:21 | 43.35251 | 4.17925 | 25566 ft | 408 kts | 269° |
| 2026-05-04 19:22 | 43.35392 | 4.13998 | 25858 ft | 412 kts | 269° |
| 2026-05-04 19:22 | 43.35532 | 4.10056 | 26174 ft | 415 kts | 269° |
| 2026-05-04 19:22 | 43.35672 | 4.06081 | 26510 ft | 418 kts | 269° |
| 2026-05-04 19:22 | 43.35811 | 4.02078 | 26851 ft | 420 kts | 269° |
| 2026-05-04 19:23 | 43.35948 | 3.98066 | 27184 ft | 422 kts | 269° |
| 2026-05-04 19:23 | 43.36083 | 3.94038 | 27498 ft | 424 kts | 269° |
| 2026-05-04 19:23 | 43.36328 | 3.89983 | 27818 ft | 427 kts | 272° |
| 2026-05-04 19:23 | 43.36661 | 3.85920 | 28140 ft | 430 kts | 272° |
| 2026-05-04 19:24 | 43.37002 | 3.81874 | 28409 ft | 433 kts | 272° |
| 2026-05-04 19:24 | 43.37350 | 3.77688 | 28646 ft | 436 kts | 272° |
| 2026-05-04 19:24 | 43.37675 | 3.73531 | 28863 ft | 440 kts | 272° |
| 2026-05-04 19:24 | 43.38000 | 3.69328 | 29131 ft | 443 kts | 272° |
| 2026-05-04 19:25 | 43.38326 | 3.65114 | 29400 ft | 444 kts | 272° |
| 2026-05-04 19:25 | 43.38543 | 3.62313 | 29579 ft | 446 kts | 272° |
| 2026-05-04 19:25 | 43.38872 | 3.58071 | 29844 ft | 447 kts | 272° |
| 2026-05-04 19:25 | 43.39202 | 3.53811 | 30084 ft | 449 kts | 272° |
| 2026-05-04 19:26 | 43.39535 | 3.49538 | 30312 ft | 450 kts | 272° |
| 2026-05-04 19:26 | 43.39872 | 3.45257 | 30550 ft | 450 kts | 272° |
| 2026-05-04 19:26 | 43.40214 | 3.40984 | 30835 ft | 449 kts | 272° |
| 2026-05-04 19:26 | 43.40561 | 3.36727 | 31166 ft | 447 kts | 272° |
| 2026-05-04 19:27 | 43.40913 | 3.32493 | 31516 ft | 444 kts | 272° |
| 2026-05-04 19:27 | 43.41266 | 3.28334 | 31824 ft | 443 kts | 272° |
| 2026-05-04 19:27 | 43.41634 | 3.24091 | 31913 ft | 441 kts | 272° |
| 2026-05-04 19:28 | 43.42359 | 3.15790 | 31925 ft | 439 kts | 272° |
| 2026-05-04 19:28 | 43.43087 | 3.07454 | 31925 ft | 439 kts | 272° |
| 2026-05-04 19:29 | 43.43819 | 2.99093 | 31917 ft | 442 kts | 272° |
| 2026-05-04 19:29 | 43.44559 | 2.90693 | 31926 ft | 443 kts | 272° |
| 2026-05-04 19:30 | 43.45297 | 2.82278 | 31929 ft | 443 kts | 272° |
| 2026-05-04 19:30 | 43.46031 | 2.73854 | 31929 ft | 443 kts | 272° |
| 2026-05-04 19:31 | 43.46760 | 2.65445 | 31969 ft | 443 kts | 272° |
| 2026-05-04 19:31 | 43.47509 | 2.57013 | 31951 ft | 444 kts | 272° |
| 2026-05-04 19:32 | 43.48258 | 2.48579 | 31950 ft | 444 kts | 272° |
| 2026-05-04 19:32 | 43.49005 | 2.40137 | 31955 ft | 445 kts | 272° |
| 2026-05-04 19:33 | 43.49747 | 2.31676 | 31958 ft | 445 kts | 272° |
| 2026-05-04 19:33 | 43.50498 | 2.23213 | 31981 ft | 445 kts | 271° |
| 2026-05-04 19:34 | 43.50550 | 2.14819 | 32007 ft | 436 kts | 264° |
| 2026-05-04 19:34 | 43.50445 | 2.06499 | 32004 ft | 433 kts | 264° |
| 2026-05-04 19:35 | 43.50329 | 1.98224 | 32000 ft | 431 kts | 264° |
| 2026-05-04 19:35 | 43.50214 | 1.89986 | 32030 ft | 430 kts | 264° |
| 2026-05-04 19:36 | 43.50095 | 1.81785 | 31988 ft | 427 kts | 263° |
| 2026-05-04 19:36 | 43.49963 | 1.73624 | 31981 ft | 426 kts | 263° |
| 2026-05-04 19:37 | 43.49830 | 1.65471 | 31982 ft | 426 kts | 263° |
| 2026-05-04 19:37 | 43.49686 | 1.57319 | 31980 ft | 426 kts | 263° |
| 2026-05-04 19:38 | 43.49539 | 1.49165 | 32010 ft | 426 kts | 263° |
| 2026-05-04 19:38 | 43.49395 | 1.41020 | 32005 ft | 425 kts | 263° |
| 2026-05-04 19:39 | 43.49242 | 1.32898 | 32004 ft | 424 kts | 263° |
| 2026-05-04 19:39 | 43.49080 | 1.24782 | 31998 ft | 424 kts | 263° |
| 2026-05-04 19:40 | 43.48905 | 1.16672 | 31994 ft | 423 kts | 263° |
| 2026-05-04 19:40 | 43.48728 | 1.08560 | 31712 ft | 424 kts | 263° |
| 2026-05-04 19:40 | 43.48638 | 1.04492 | 31456 ft | 425 kts | 263° |
| 2026-05-04 19:41 | 43.48547 | 1.00425 | 31204 ft | 425 kts | 263° |
| 2026-05-04 19:41 | 43.48456 | 0.96357 | 30953 ft | 425 kts | 263° |
| 2026-05-04 19:41 | 43.48365 | 0.92294 | 30705 ft | 424 kts | 263° |
| 2026-05-04 19:41 | 43.48273 | 0.88232 | 30457 ft | 424 kts | 262° |
| 2026-05-04 19:42 | 43.48178 | 0.84183 | 30217 ft | 423 kts | 262° |
| 2026-05-04 19:42 | 43.48081 | 0.80137 | 29905 ft | 421 kts | 262° |
| 2026-05-04 19:42 | 43.47984 | 0.76145 | 29374 ft | 416 kts | 262° |
| 2026-05-04 19:42 | 43.47887 | 0.72176 | 28790 ft | 412 kts | 262° |
| 2026-05-04 19:43 | 43.47789 | 0.68262 | 28252 ft | 408 kts | 262° |
| 2026-05-04 19:43 | 43.47691 | 0.64374 | 27720 ft | 404 kts | 262° |
| 2026-05-04 19:43 | 43.47589 | 0.60539 | 27196 ft | 400 kts | 262° |
| 2026-05-04 19:43 | 43.47487 | 0.56721 | 26671 ft | 397 kts | 263° |
| 2026-05-04 19:44 | 43.47387 | 0.52938 | 26168 ft | 395 kts | 263° |
| 2026-05-04 19:44 | 43.47287 | 0.49171 | 25669 ft | 393 kts | 263° |
| 2026-05-04 19:44 | 43.47186 | 0.45420 | 25179 ft | 391 kts | 263° |
| 2026-05-04 19:44 | 43.47083 | 0.41691 | 24701 ft | 389 kts | 263° |
| 2026-05-04 19:45 | 43.46978 | 0.37982 | 24253 ft | 387 kts | 263° |
| 2026-05-04 19:45 | 43.46873 | 0.34276 | 23774 ft | 386 kts | 264° |
| 2026-05-04 19:45 | 43.46768 | 0.30594 | 23265 ft | 384 kts | 264° |
| 2026-05-04 19:45 | 43.46661 | 0.26939 | 22821 ft | 380 kts | 264° |
| 2026-05-04 19:46 | 43.46555 | 0.23313 | 22378 ft | 376 kts | 264° |
| 2026-05-04 19:46 | 43.46450 | 0.19738 | 21938 ft | 373 kts | 264° |
| 2026-05-04 19:46 | 43.46346 | 0.16186 | 21500 ft | 369 kts | 264° |
| 2026-05-04 19:46 | 43.46242 | 0.12669 | 21054 ft | 366 kts | 264° |
| 2026-05-04 19:47 | 43.46136 | 0.09192 | 20616 ft | 363 kts | 264° |
| 2026-05-04 19:47 | 43.46030 | 0.05734 | 20164 ft | 360 kts | 264° |
| 2026-05-04 19:47 | 43.45928 | 0.02307 | 19713 ft | 357 kts | 264° |
| 2026-05-04 19:47 | 43.45825 | -0.01100 | 19283 ft | 355 kts | 265° |
| 2026-05-04 19:48 | 43.45717 | -0.04482 | 18811 ft | 353 kts | 265° |
| 2026-05-04 19:48 | 43.45605 | -0.07846 | 18359 ft | 351 kts | 265° |
| 2026-05-04 19:48 | 43.45493 | -0.11194 | 17865 ft | 349 kts | 265° |
| 2026-05-04 19:48 | 43.45384 | -0.14520 | 17420 ft | 346 kts | 265° |
| 2026-05-04 19:49 | 43.45275 | -0.17809 | 16987 ft | 343 kts | 265° |
| 2026-05-04 19:49 | 43.45166 | -0.21075 | 16548 ft | 340 kts | 265° |
| 2026-05-04 19:49 | 43.45059 | -0.24316 | 16119 ft | 338 kts | 265° |
| 2026-05-04 19:49 | 43.44952 | -0.27530 | 15695 ft | 336 kts | 265° |
| 2026-05-04 19:50 | 43.44846 | -0.30729 | 15272 ft | 334 kts | 266° |
| 2026-05-04 19:50 | 43.44739 | -0.33909 | 14857 ft | 332 kts | 266° |
| 2026-05-04 19:50 | 43.44633 | -0.37071 | 14430 ft | 330 kts | 265° |
| 2026-05-04 19:50 | 43.44525 | -0.40226 | 14005 ft | 329 kts | 266° |
| 2026-05-04 19:51 | 43.44418 | -0.43358 | 13558 ft | 328 kts | 265° |
| 2026-05-04 19:51 | 43.44307 | -0.46478 | 13114 ft | 325 kts | 266° |
| 2026-05-04 19:51 | 43.44199 | -0.49535 | 12700 ft | 323 kts | 265° |
| 2026-05-04 19:51 | 43.44089 | -0.52607 | 12258 ft | 321 kts | 266° |
| 2026-05-04 19:52 | 43.43978 | -0.55669 | 11822 ft | 319 kts | 265° |
| 2026-05-04 19:52 | 43.43866 | -0.58707 | 11393 ft | 317 kts | 265° |
| 2026-05-04 19:52 | 43.43754 | -0.61719 | 10967 ft | 314 kts | 265° |
| 2026-05-04 19:52 | 43.43643 | -0.64718 | 10543 ft | 314 kts | 266° |
| 2026-05-04 19:53 | 43.43536 | -0.67670 | 10129 ft | 302 kts | 266° |
| 2026-05-04 19:53 | 43.43433 | -0.70489 | 9700 ft | 288 kts | 265° |
| 2026-05-04 19:53 | 43.43330 | -0.73235 | 9243 ft | 279 kts | 265° |
| 2026-05-04 19:53 | 43.43229 | -0.75868 | 8808 ft | 280 kts | 265° |
| 2026-05-04 19:54 | 43.43126 | -0.78535 | 8370 ft | 279 kts | 267° |
| 2026-05-04 19:54 | 43.43022 | -0.81201 | 7935 ft | 279 kts | 267° |
| 2026-05-04 19:54 | 43.42919 | -0.83861 | 7507 ft | 278 kts | 268° |
| 2026-05-04 19:54 | 43.42816 | -0.86553 | 7076 ft | 278 kts | 268° |
| 2026-05-04 19:55 | 43.42714 | -0.89156 | 6653 ft | 272 kts | 268° |
| 2026-05-04 19:55 | 43.42614 | -0.91696 | 6228 ft | 261 kts | 268° |
| 2026-05-04 19:55 | 43.42517 | -0.94135 | 5781 ft | 251 kts | 268° |
| 2026-05-04 19:55 | 43.42421 | -0.96522 | 5347 ft | 242 kts | 268° |
| 2026-05-04 19:56 | 43.42330 | -0.98763 | 4935 ft | 235 kts | 268° |
| 2026-05-04 19:56 | 43.42240 | -1.01023 | 4489 ft | 238 kts | 268° |
| 2026-05-04 19:56 | 43.42150 | -1.03292 | 4044 ft | 235 kts | 268° |
| 2026-05-04 19:56 | 43.42061 | -1.05496 | 3611 ft | 228 kts | 268° |
| 2026-05-04 19:57 | 43.41975 | -1.07641 | 3186 ft | 222 kts | 268° |
| 2026-05-04 19:57 | 43.41888 | -1.09735 | 2785 ft | 216 kts | 268° |
| 2026-05-04 19:57 | 43.41826 | -1.11724 | 2595 ft | 202 kts | 274° |
| 2026-05-04 19:57 | 43.42020 | -1.13572 | 2503 ft | 192 kts | 286° |
| 2026-05-04 19:58 | 43.42481 | -1.15286 | 2508 ft | 192 kts | 297° |
| 2026-05-04 19:58 | 43.43144 | -1.16876 | 2507 ft | 190 kts | 301° |
| 2026-05-04 19:58 | 43.43810 | -1.18439 | 2509 ft | 189 kts | 301° |
| 2026-05-04 19:58 | 43.44440 | -1.19930 | 2531 ft | 171 kts | 301° |
| 2026-05-04 19:59 | 43.45012 | -1.21283 | 2498 ft | 155 kts | 301° |
| 2026-05-04 19:59 | 43.45533 | -1.22520 | 2493 ft | 146 kts | 301° |
| 2026-05-04 19:59 | 43.46033 | -1.23707 | 2497 ft | 142 kts | 301° |
| 2026-05-04 19:59 | 43.46530 | -1.24880 | 2506 ft | 141 kts | 301° |
| 2026-05-04 20:00 | 43.46928 | -1.26112 | 2502 ft | 142 kts | 279° |
| 2026-05-04 20:00 | 43.46984 | -1.27471 | 2508 ft | 143 kts | 274° |
| 2026-05-04 20:00 | 43.47016 | -1.28835 | 2507 ft | 143 kts | 273° |
| 2026-05-04 20:00 | 43.47025 | -1.30199 | 2502 ft | 142 kts | 272° |
| 2026-05-04 20:01 | 43.47024 | -1.31554 | 2517 ft | 141 kts | 272° |
| 2026-05-04 20:01 | 43.47017 | -1.32908 | 2512 ft | 141 kts | 271° |
| 2026-05-04 20:01 | 43.47007 | -1.34262 | 2502 ft | 142 kts | 271° |
| 2026-05-04 20:01 | 43.46997 | -1.35615 | 2389 ft | 141 kts | 271° |
| 2026-05-04 20:02 | 43.46985 | -1.36966 | 2233 ft | 141 kts | 271° |
| 2026-05-04 20:02 | 43.46973 | -1.38295 | 2072 ft | 138 kts | 271° |
| 2026-05-04 20:02 | 43.46962 | -1.39606 | 1884 ft | 137 kts | 271° |
| 2026-05-04 20:02 | 43.46950 | -1.40912 | 1697 ft | 136 kts | 271° |
| 2026-05-04 20:03 | 43.46938 | -1.42208 | 1510 ft | 136 kts | 271° |
| 2026-05-04 20:03 | 43.46926 | -1.43505 | 1326 ft | 135 kts | 270° |
| 2026-05-04 20:03 | 43.46913 | -1.44797 | 1131 ft | 135 kts | 270° |
| 2026-05-04 20:03 | 43.46901 | -1.46097 | 949 ft | 136 kts | 270° |
| 2026-05-04 20:04 | 43.46888 | -1.47399 | 769 ft | 136 kts | 269° |
| 2026-05-04 20:04 | 43.46876 | -1.48703 | 585 ft | 136 kts | 270° |
| 2026-05-04 20:04 | 43.46861 | -1.50006 | 405 ft | 136 kts | 269° |
| 2026-05-04 20:04 | 43.46852 | -1.51311 | 244 ft | 135 kts | 268° |
| 2026-05-04 20:05 | 43.46840 | -1.52439 | 243 ft | 95 kts | 270° |
| 2026-05-04 20:05 | 43.46834 | -1.52980 | 247 ft | 14 kts | 268° |
| 2026-05-04 20:05 | 43.46833 | -1.53065 | 247 ft | 0 kts | 275° |
| 2026-05-04 20:05 | 43.46844 | -1.53106 | 246 ft | 7 kts | 301° |
| 2026-05-04 20:06 | 43.46876 | -1.53146 | 245 ft | 8 kts | 328° |
| 2026-05-04 20:06 | 43.46926 | -1.53181 | 245 ft | 7 kts | 334° |
| 2026-05-04 20:06 | 43.46967 | -1.53201 | 245 ft | 5 kts | 347° |
| 2026-05-04 20:06 | 43.47000 | -1.53199 | 245 ft | 4 kts | 13° |
| 2026-05-04 20:07 | 43.47021 | -1.53185 | 245 ft | 3 kts | 33° |
| 2026-05-04 20:07 | 43.47050 | -1.53152 | 245 ft | 9 kts | 34° |
| 2026-05-04 20:07 | 43.47105 | -1.53120 | 245 ft | 8 kts | 19° |
| 2026-05-04 20:07 | 43.47120 | -1.53112 | 245 ft | 0 kts | 19° |